Time;durP1;ratioP1;P1;durP2;ratioP2;P2;SDS_P1;SDS_P2;PMS_P1;PMS_P2;Temp;Humidity;BMP_temperature;BMP_pressure;BME280_temperature;BME280_humidity;BME280_pressure;Samples;Min_cycle;Max_cycle;Signal;HPM_P1;HPM_P2
2024/01/26 00:00:05;;;;;;;;;14.75;10.75;;;;;12.66;87.41;102114.28;5037233;28;74577;-66
2024/01/26 00:02:30;;;;;;;;;11.00;9.50;;;;;12.66;87.54;102110.75;5069476;27;45474;-66
2024/01/26 00:04:56;;;;;;;;;15.25;8.50;;;;;12.62;87.55;102114.34;5038149;28;69298;-66
2024/01/26 00:07:21;;;;;;;;;12.00;9.50;;;;;12.60;87.57;102113.50;5069665;28;70812;-66
2024/01/26 00:09:46;;;;;;;;;12.50;8.75;;;;;12.58;87.55;102112.66;5040409;28;68780;-66
2024/01/26 00:12:12;;;;;;;;;13.25;9.25;;;;;12.59;87.31;102114.38;5042970;28;71782;-66
2024/01/26 00:14:37;;;;;;;;;13.00;10.00;;;;;12.57;87.45;102114.41;5038652;28;68201;-66
2024/01/26 00:17:02;;;;;;;;;11.00;9.75;;;;;12.56;87.57;102117.06;5045601;28;45469;-67
2024/01/26 00:19:28;;;;;;;;;10.75;10.50;;;;;12.52;87.62;102129.34;5038907;28;46370;-66
2024/01/26 00:21:53;;;;;;;;;11.25;10.00;;;;;12.51;87.53;102141.59;5042996;28;72164;-66
2024/01/26 00:24:18;;;;;;;;;11.00;10.50;;;;;12.48;87.82;102128.53;5040254;28;52129;-66
2024/01/26 00:26:44;;;;;;;;;11.00;9.00;;;;;12.46;87.29;102114.53;5057600;28;50613;-67
2024/01/26 00:29:09;;;;;;;;;11.00;9.00;;;;;12.42;87.82;102110.22;5036899;28;75200;-66
2024/01/26 00:31:34;;;;;;;;;11.75;9.00;;;;;12.44;88.22;102094.44;5038541;28;71214;-67
2024/01/26 00:34:00;;;;;;;;;10.00;8.25;;;;;12.42;87.53;102089.22;5038389;28;68302;-67
2024/01/26 00:36:25;;;;;;;;;10.50;8.25;;;;;12.41;87.77;102083.97;5041744;28;45327;-66
2024/01/26 00:38:50;;;;;;;;;9.25;7.75;;;;;12.41;88.23;102071.72;5036790;28;69509;-67
2024/01/26 00:41:15;;;;;;;;;11.25;7.75;;;;;12.40;88.23;102080.47;5041498;28;59319;-67
2024/01/26 00:43:41;;;;;;;;;14.00;11.50;;;;;12.45;87.99;102091.78;5046704;28;45532;-67
2024/01/26 00:46:07;;;;;;;;;13.25;10.00;;;;;12.49;88.29;102098.72;5043478;28;45558;-67
2024/01/26 00:48:33;;;;;;;;;13.50;11.75;;;;;12.53;88.14;102105.69;5042338;28;46834;-68
2024/01/26 00:50:58;;;;;;;;;11.25;8.25;;;;;12.55;88.22;102097.78;5038905;28;45587;-67
2024/01/26 00:53:24;;;;;;;;;11.00;9.25;;;;;12.57;88.03;102096.03;5044952;28;45501;-65
2024/01/26 00:55:49;;;;;;;;;8.75;8.75;;;;;12.59;88.23;102090.72;5058003;28;45732;-65
2024/01/26 00:58:15;;;;;;;;;10.25;9.25;;;;;12.61;88.18;102086.34;5039380;28;45215;-65
2024/01/26 01:00:40;;;;;;;;;12.50;7.50;;;;;12.65;87.79;102082.78;5043524;28;45546;-65
2024/01/26 01:03:05;;;;;;;;;11.75;11.00;;;;;12.65;88.13;102082.78;5077430;27;45294;-65
2024/01/26 01:05:31;;;;;;;;;13.50;11.00;;;;;12.66;88.21;102074.00;5038128;28;73136;-65
2024/01/26 01:07:56;;;;;;;;;11.00;9.50;;;;;12.67;87.54;102079.22;5040362;28;60991;-65
2024/01/26 01:10:22;;;;;;;;;9.75;9.00;;;;;12.66;88.02;102072.25;5070334;27;51551;-66
2024/01/26 01:12:47;;;;;;;;;9.25;8.00;;;;;12.70;87.75;102062.56;5042835;28;45468;-65
2024/01/26 01:15:13;;;;;;;;;10.75;8.00;;;;;12.72;87.89;102055.53;5048642;28;71615;-66
2024/01/26 01:17:39;;;;;;;;;11.25;10.00;;;;;12.75;87.90;102060.75;5039532;28;63569;-65
2024/01/26 01:20:06;;;;;;;;;13.75;10.50;;;;;12.77;87.90;102063.38;5038704;28;45754;-66
2024/01/26 01:22:31;;;;;;;;;13.25;10.75;;;;;12.76;87.60;102064.25;5073783;27;45507;-66
2024/01/26 01:24:57;;;;;;;;;12.25;9.25;;;;;12.79;87.74;102077.34;5039664;28;45510;-65
2024/01/26 01:27:22;;;;;;;;;10.50;8.50;;;;;12.83;87.61;102060.63;5041927;28;66554;-65
2024/01/26 01:29:47;;;;;;;;;9.25;8.50;;;;;12.84;87.39;102062.38;5040051;28;48644;-66
2024/01/26 01:32:12;;;;;;;;;16.00;11.50;;;;;12.86;87.62;102065.84;5041815;28;65885;-65
2024/01/26 01:34:39;;;;;;;;;11.50;9.50;;;;;12.88;87.48;102062.28;5047500;28;73176;-66
2024/01/26 01:37:05;;;;;;;;;13.50;11.00;;;;;12.88;87.56;102071.94;5047837;28;47114;-65
2024/01/26 01:39:30;;;;;;;;;14.00;10.50;;;;;12.89;87.17;102068.41;5062112;27;45839;-65
2024/01/26 01:41:55;;;;;;;;;13.25;10.25;;;;;12.91;87.12;102066.66;5044365;28;68098;-66
2024/01/26 01:44:21;;;;;;;;;10.50;9.75;;;;;12.92;87.12;102065.75;5045443;28;58163;-66
2024/01/26 01:46:46;;;;;;;;;11.00;11.00;;;;;12.94;87.58;102063.94;5046445;28;70123;-65
2024/01/26 01:49:12;;;;;;;;;12.25;12.00;;;;;12.95;87.38;102065.69;5049297;28;45300;-66
2024/01/26 01:51:37;;;;;;;;;11.00;11.00;;;;;12.97;87.27;102073.56;5050156;28;45289;-65
2024/01/26 01:54:03;;;;;;;;;15.25;9.25;;;;;12.96;87.12;102063.94;5085189;27;45388;-65
2024/01/26 01:56:29;;;;;;;;;13.75;10.00;;;;;12.99;87.25;102080.50;5046838;28;45465;-65
2024/01/26 01:58:55;;;;;;;;;10.75;9.50;;;;;13.00;87.15;102082.25;5052913;28;45292;-65
2024/01/26 02:01:20;;;;;;;;;13.00;10.25;;;;;13.02;87.05;102074.38;5045726;28;45596;-66
2024/01/26 02:03:46;;;;;;;;;13.00;9.75;;;;;13.01;87.17;102060.34;5049833;28;45389;-66
2024/01/26 02:06:12;;;;;;;;;11.00;10.75;;;;;12.98;86.91;102047.25;5050831;28;46305;-65
2024/01/26 02:08:37;;;;;;;;;14.75;9.00;;;;;13.02;87.07;102063.84;5081162;27;73203;-65
2024/01/26 02:11:03;;;;;;;;;12.00;11.00;;;;;13.03;87.31;102066.47;5051002;28;45279;-65
2024/01/26 02:13:28;;;;;;;;;15.75;11.00;;;;;13.05;86.89;102062.03;5047993;28;45651;-65
2024/01/26 02:15:54;;;;;;;;;14.00;12.00;;;;;13.05;87.15;102054.16;5047906;28;46126;-65
2024/01/26 02:18:19;;;;;;;;;12.00;10.50;;;;;13.06;86.66;102058.50;5049349;28;45383;-65
2024/01/26 02:20:45;;;;;;;;;13.50;11.00;;;;;13.07;86.85;102059.38;5051226;28;68031;-66
2024/01/26 02:23:14;;;;;;;;;14.00;9.75;;;;;13.07;86.71;102052.38;5048953;28;61685;-66
2024/01/26 02:25:40;;;;;;;;;11.25;10.00;;;;;13.07;86.68;102051.50;5043194;28;46041;-66
2024/01/26 02:28:05;;;;;;;;;12.50;10.75;;;;;13.09;86.90;102039.19;5041406;28;73172;-66
2024/01/26 02:30:33;;;;;;;;;8.00;7.75;;;;;13.12;86.95;102049.66;5038288;28;69318;-65
2024/01/26 02:32:58;;;;;;;;;10.50;9.75;;;;;13.12;86.72;102044.41;5042939;28;45305;-66
2024/01/26 02:35:24;;;;;;;;;13.00;9.00;;;;;13.15;86.77;102048.75;5034588;28;74960;-66
2024/01/26 02:37:49;;;;;;;;;9.75;9.00;;;;;13.14;86.17;102036.47;5040359;28;70065;-65
2024/01/26 02:40:15;;;;;;;;;10.00;8.50;;;;;13.13;86.11;102040.88;5045649;28;49346;-66
2024/01/26 02:42:40;;;;;;;;;11.75;11.25;;;;;13.14;86.55;102047.88;5047166;28;45617;-65
2024/01/26 02:45:06;;;;;;;;;12.75;10.00;;;;;13.14;86.52;102040.00;5039235;28;75551;-65
2024/01/26 02:47:31;;;;;;;;;10.25;8.75;;;;;13.15;86.39;102036.47;5045831;28;45384;-65
2024/01/26 02:49:57;;;;;;;;;10.50;9.25;;;;;13.17;86.20;102039.91;5050019;28;63543;-65
2024/01/26 02:52:22;;;;;;;;;12.75;9.00;;;;;13.15;86.13;102031.19;5040733;28;45403;-65
2024/01/26 02:54:47;;;;;;;;;12.50;9.00;;;;;13.17;86.28;102037.28;5039668;28;63232;-66
2024/01/26 02:57:13;;;;;;;;;14.00;9.75;;;;;13.18;85.76;102020.63;5040254;28;45380;-65
2024/01/26 02:59:40;;;;;;;;;12.25;11.50;;;;;13.18;86.16;102019.78;5042370;28;45449;-66
2024/01/26 03:02:06;;;;;;;;;12.25;9.00;;;;;13.18;85.73;102020.63;5073262;27;45238;-65
2024/01/26 03:04:31;;;;;;;;;12.00;10.00;;;;;13.17;86.06;102007.53;5039439;28;74439;-66
2024/01/26 03:06:56;;;;;;;;;11.50;10.50;;;;;13.18;86.01;102007.50;5043933;28;72997;-65
2024/01/26 03:09:22;;;;;;;;;10.50;8.75;;;;;13.19;85.80;102011.88;5042544;28;45328;-65
2024/01/26 03:11:47;;;;;;;;;9.25;7.00;;;;;13.17;85.45;102013.63;5037722;28;45393;-65
2024/01/26 03:14:15;;;;;;;;;10.75;9.50;;;;;13.16;85.76;102017.19;5045908;28;46022;-65
2024/01/26 03:16:40;;;;;;;;;10.50;9.25;;;;;13.14;85.89;102020.72;5047028;28;45442;-65
2024/01/26 03:19:07;;;;;;;;;11.50;10.00;;;;;13.13;85.58;102016.38;5040996;28;45505;-65
2024/01/26 03:21:32;;;;;;;;;7.75;7.75;;;;;13.14;85.62;102020.72;5073371;27;45571;-66
2024/01/26 03:23:57;;;;;;;;;9.75;9.00;;;;;13.14;85.26;102015.44;5040114;28;46123;-65
2024/01/26 03:26:23;;;;;;;;;12.00;8.00;;;;;13.13;85.24;102022.47;5038412;28;71947;-66
2024/01/26 03:28:49;;;;;;;;;11.75;10.00;;;;;13.10;85.45;102012.91;5038155;28;45284;-65
2024/01/26 03:31:14;;;;;;;;;11.50;10.75;;;;;13.08;85.20;102003.28;5038358;28;72966;-65
2024/01/26 03:33:40;;;;;;;;;9.75;9.75;;;;;13.08;85.40;102011.16;5039052;28;46190;-66
2024/01/26 03:36:06;;;;;;;;;10.25;9.00;;;;;13.05;85.29;102004.22;5038876;28;45652;-65
2024/01/26 03:38:32;;;;;;;;;10.50;9.00;;;;;13.05;85.29;102003.34;5071585;28;45624;-66
2024/01/26 03:40:57;;;;;;;;;9.75;9.25;;;;;13.04;85.38;102012.97;5042641;28;45197;-66
2024/01/26 03:43:22;;;;;;;;;10.00;8.00;;;;;13.02;85.57;102014.78;5042033;28;60576;-66
2024/01/26 03:45:47;;;;;;;;;9.25;8.50;;;;;13.01;85.29;102015.66;5042916;28;65396;-65
2024/01/26 03:48:13;;;;;;;;;8.50;8.50;;;;;13.02;85.16;102003.41;5043431;28;62562;-65
2024/01/26 03:50:38;;;;;;;;;11.25;7.50;;;;;13.03;85.29;101992.88;5039654;28;53676;-66
2024/01/26 03:53:03;;;;;;;;;10.50;10.00;;;;;13.02;85.29;101993.75;5038843;28;75283;-65
2024/01/26 03:55:29;;;;;;;;;13.50;11.00;;;;;13.04;85.08;101999.00;5031884;28;72083;-65
2024/01/26 03:57:54;;;;;;;;;11.00;9.25;;;;;13.05;85.20;101998.06;5038757;28;69665;-65
2024/01/26 04:00:19;;;;;;;;;10.00;9.75;;;;;13.04;85.30;101989.34;5042633;28;54359;-65
2024/01/26 04:02:45;;;;;;;;;11.50;9.50;;;;;13.07;85.45;102005.06;5041745;28;75248;-65
2024/01/26 04:05:10;;;;;;;;;12.25;9.50;;;;;13.09;85.07;102016.41;5034459;28;45769;-66
2024/01/26 04:07:35;;;;;;;;;9.50;9.50;;;;;13.13;85.26;102019.84;5071662;28;45521;-66
2024/01/26 04:10:01;;;;;;;;;12.75;9.00;;;;;13.13;85.05;102003.22;5040521;28;72194;-66
2024/01/26 04:12:27;;;;;;;;;11.50;8.00;;;;;13.14;85.27;102003.19;5038829;28;45512;-65
2024/01/26 04:14:52;;;;;;;;;14.25;9.50;;;;;13.16;84.76;102000.56;5040381;28;73033;-66
2024/01/26 04:17:17;;;;;;;;;12.75;9.50;;;;;13.18;85.16;101988.25;5037088;28;67719;-66
2024/01/26 04:19:43;;;;;;;;;12.25;9.75;;;;;13.20;85.06;101996.97;5041336;28;71857;-66
2024/01/26 04:22:08;;;;;;;;;11.50;8.00;;;;;13.20;84.76;101995.19;5044933;28;55939;-66
2024/01/26 04:24:36;;;;;;;;;14.25;10.00;;;;;13.20;84.33;101996.97;5042221;28;45606;-66
2024/01/26 04:27:02;;;;;;;;;10.75;10.25;;;;;13.20;84.56;102002.22;5044382;28;64490;-66
2024/01/26 04:29:27;;;;;;;;;11.00;8.75;;;;;13.20;84.67;102000.44;5036291;28;51984;-65
2024/01/26 04:31:52;;;;;;;;;8.50;8.50;;;;;13.19;84.75;101997.84;5053711;28;75746;-66
2024/01/26 04:34:18;;;;;;;;;11.50;9.00;;;;;13.20;84.84;102010.97;5040150;28;70833;-66
2024/01/26 04:36:47;;;;;;;;;9.75;9.25;;;;;13.21;84.81;102017.97;5072894;27;45670;-66
2024/01/26 04:39:13;;;;;;;;;9.25;8.00;;;;;13.21;84.48;101998.69;5031923;28;47318;-66
2024/01/26 04:41:39;;;;;;;;;12.25;10.00;;;;;13.20;84.35;102005.72;5040492;28;46999;-65
2024/01/26 04:44:04;;;;;;;;;13.50;9.25;;;;;13.18;84.79;101994.34;5039206;28;45466;-66
2024/01/26 04:46:30;;;;;;;;;10.75;7.75;;;;;13.19;84.41;102006.63;5043262;28;66596;-66
2024/01/26 04:48:55;;;;;;;;;10.00;7.50;;;;;13.19;84.46;102009.25;5050743;28;46721;-66
2024/01/26 04:51:20;;;;;;;;;9.00;6.75;;;;;13.19;84.56;101997.84;5036072;28;75074;-66
2024/01/26 04:53:46;;;;;;;;;11.50;8.00;;;;;13.19;84.32;102005.72;5043134;28;63967;-66
2024/01/26 04:56:11;;;;;;;;;2.50;0.00;;;;;13.18;84.63;102007.50;5075728;27;61382;-66
2024/01/26 04:58:37;;;;;;;;;8.75;8.00;;;;;13.19;84.20;102011.88;5043349;28;45652;-66
2024/01/26 05:01:03;;;;;;;;;11.00;9.00;;;;;13.21;84.18;102002.19;5038311;28;47386;-65
2024/01/26 05:03:29;;;;;;;;;12.25;9.00;;;;;13.23;84.53;102004.81;5042098;28;45293;-66
2024/01/26 05:05:55;;;;;;;;;8.00;8.00;;;;;13.24;84.57;102010.03;5072033;27;45297;-66
2024/01/26 05:08:20;;;;;;;;;14.25;9.75;;;;;13.26;84.61;102002.97;5045595;28;45384;-66
2024/01/26 05:10:45;;;;;;;;;11.50;7.75;;;;;13.27;84.39;102001.22;5039962;28;70373;-66
2024/01/26 05:13:11;;;;;;;;;11.00;8.00;;;;;13.25;84.45;102001.25;5039844;28;71575;-66
2024/01/26 05:15:37;;;;;;;;;10.50;9.50;;;;;13.25;84.20;102005.63;5039360;28;46553;-66
2024/01/26 05:18:03;;;;;;;;;9.25;8.25;;;;;13.26;84.17;102000.34;5042043;28;68200;-66
2024/01/26 05:20:29;;;;;;;;;9.75;8.75;;;;;13.29;84.11;102002.91;5045999;28;46977;-66
2024/01/26 05:22:54;;;;;;;;;10.75;8.75;;;;;13.31;84.17;101984.50;5042912;28;45582;-66
2024/01/26 05:25:19;;;;;;;;;7.75;7.50;;;;;13.32;84.32;101973.13;5075123;27;62074;-66
2024/01/26 05:27:45;;;;;;;;;6.25;5.75;;;;;13.33;84.30;101968.72;5040233;28;68660;-66
2024/01/26 05:30:10;;;;;;;;;9.50;7.75;;;;;13.35;84.48;101972.19;5040199;28;69452;-66
2024/01/26 05:32:36;;;;;;;;;10.00;7.00;;;;;13.36;84.23;101977.41;5040145;28;45336;-66
2024/01/26 05:35:01;;;;;;;;;8.00;8.00;;;;;13.37;83.96;101973.91;5044311;28;69911;-65
2024/01/26 05:37:26;;;;;;;;;12.00;8.00;;;;;13.38;83.82;101978.25;5057124;28;73265;-66
2024/01/26 05:39:51;;;;;;;;;11.50;7.50;;;;;13.37;83.70;101979.16;5041593;28;65958;-65
2024/01/26 05:42:17;;;;;;;;;9.25;5.75;;;;;13.38;83.55;101978.25;5040227;28;66547;-66
2024/01/26 05:44:42;;;;;;;;;7.00;5.50;;;;;13.38;83.83;101985.28;5040924;28;63736;-66
2024/01/26 05:47:07;;;;;;;;;8.75;8.00;;;;;13.40;83.83;101994.00;5045728;28;45477;-66
2024/01/26 05:49:33;;;;;;;;;10.75;8.00;;;;;13.38;83.70;102001.91;5041072;28;58877;-66
2024/01/26 05:51:59;;;;;;;;;10.25;8.00;;;;;13.41;83.55;101998.38;5043606;28;45512;-66
2024/01/26 05:54:24;;;;;;;;;12.25;9.25;;;;;13.40;83.78;101997.50;5042885;28;45446;-66
2024/01/26 05:56:49;;;;;;;;;12.50;7.00;;;;;13.41;83.61;102004.50;5073401;27;54756;-66
2024/01/26 05:59:15;;;;;;;;;10.00;9.50;;;;;13.44;83.68;101998.31;5040630;28;71525;-66
2024/01/26 06:01:40;;;;;;;;;9.00;7.50;;;;;13.43;83.90;102002.69;5040292;28;45256;-66
2024/01/26 06:04:06;;;;;;;;;11.00;6.75;;;;;13.45;83.73;102003.53;5057827;28;45364;-66
2024/01/26 06:06:32;;;;;;;;;8.50;6.75;;;;;13.43;83.48;102007.94;5039486;28;45531;-66
2024/01/26 06:08:57;;;;;;;;;10.75;7.50;;;;;13.44;83.63;102011.47;5040159;28;46913;-66
2024/01/26 06:11:23;;;;;;;;;10.00;8.75;;;;;13.48;83.73;102016.63;5041227;28;68514;-66
2024/01/26 06:13:49;;;;;;;;;13.00;7.00;;;;;13.46;83.69;102018.44;5074311;27;45505;-66
2024/01/26 06:16:14;;;;;;;;;10.25;8.50;;;;;13.44;83.39;102017.59;5039544;28;46404;-66
2024/01/26 06:18:41;;;;;;;;;11.75;8.50;;;;;13.48;83.36;102028.91;5033657;28;47536;-66
2024/01/26 06:21:06;;;;;;;;;11.00;9.00;;;;;13.48;83.59;102024.50;5040657;28;45591;-66
2024/01/26 06:23:31;;;;;;;;;10.75;7.50;;;;;13.47;83.49;102020.16;5039094;28;68320;-65
2024/01/26 06:25:57;;;;;;;;;13.00;8.50;;;;;13.50;84.03;102026.25;5040825;28;71593;-65
2024/01/26 06:28:22;;;;;;;;;9.75;7.75;;;;;13.51;83.60;102020.09;5043904;28;62442;-66
2024/01/26 06:30:47;;;;;;;;;8.25;7.25;;;;;13.52;83.38;102013.94;5038772;28;45364;-65
2024/01/26 06:33:13;;;;;;;;;11.00;8.75;;;;;13.53;83.51;102028.81;5044816;28;45453;-65
2024/01/26 06:35:38;;;;;;;;;10.75;8.00;;;;;13.52;83.39;102024.47;5043036;28;65532;-66
2024/01/26 06:38:04;;;;;;;;;9.50;8.00;;;;;13.51;83.51;102025.34;5039293;28;75919;-65
2024/01/26 06:40:29;;;;;;;;;12.75;10.00;;;;;13.52;83.95;102032.34;5040303;28;45494;-65
2024/01/26 06:42:55;;;;;;;;;11.25;8.00;;;;;13.52;83.46;102035.84;5048789;28;65659;-65
2024/01/26 06:45:20;;;;;;;;;11.25;8.00;;;;;13.55;83.84;102040.19;5043690;28;45354;-66
2024/01/26 06:47:45;;;;;;;;;8.00;7.50;;;;;13.56;83.70;102040.13;5056265;28;71506;-66
2024/01/26 06:50:10;;;;;;;;;11.25;7.00;;;;;13.57;83.43;102039.25;5039773;28;45464;-65
2024/01/26 06:52:36;;;;;;;;;9.00;7.75;;;;;13.57;83.86;102033.16;5036101;28;68458;-65
2024/01/26 06:55:01;;;;;;;;;9.50;9.00;;;;;13.59;83.46;102039.25;5072828;27;45592;-65
2024/01/26 06:57:27;;;;;;;;;9.25;8.00;;;;;13.58;83.36;102035.75;5040783;28;46519;-67
2024/01/26 06:59:52;;;;;;;;;10.50;6.75;;;;;13.61;83.47;102043.56;5068849;28;45522;-66
2024/01/26 07:02:17;;;;;;;;;54.00;39.50;;;;;13.61;83.80;102043.56;5046528;28;58379;-65
2024/01/26 07:04:45;;;;;;;;;10.75;9.50;;;;;13.61;83.42;102045.34;5049191;28;45574;-67
2024/01/26 07:07:11;;;;;;;;;11.50;9.00;;;;;13.60;83.66;102048.88;5073629;27;46301;-66
2024/01/26 07:09:36;;;;;;;;;9.75;7.75;;;;;13.62;83.68;102047.09;5061050;28;45319;-64
2024/01/26 07:12:03;;;;;;;;;11.00;9.00;;;;;13.63;83.68;102056.69;5071485;27;69520;-64
2024/01/26 07:14:28;;;;;;;;;8.00;2.25;;;;;13.64;83.56;102054.03;5048561;28;45422;-65
2024/01/26 07:16:54;;;;;;;;;10.25;7.25;;;;;13.63;83.62;102054.94;5040610;28;46422;-64
2024/01/26 07:19:19;;;;;;;;;8.00;8.00;;;;;13.64;84.04;102051.41;5039823;28;71925;-66
2024/01/26 07:21:44;;;;;;;;;7.75;7.75;;;;;13.64;84.23;102048.78;5038833;28;45480;-62
2024/01/26 07:24:09;;;;;;;;;8.00;6.00;;;;;13.62;84.01;102052.34;5040590;28;68018;-62
2024/01/26 07:26:35;;;;;;;;;11.50;7.50;;;;;13.59;84.09;102061.13;5042178;28;51793;-70
2024/01/26 07:29:00;;;;;;;;;9.00;7.00;;;;;13.57;84.83;102070.81;5039971;28;46345;-67
2024/01/26 07:31:26;;;;;;;;;11.00;9.00;;;;;13.55;84.59;102069.13;5074734;27;45415;-63
2024/01/26 07:33:51;;;;;;;;;7.50;6.00;;;;;13.55;84.95;102075.25;5039517;28;69846;-64
2024/01/26 07:36:18;;;;;;;;;8.75;8.75;;;;;13.54;86.39;102075.28;5038456;28;47391;-65
2024/01/26 07:38:43;;;;;;;;;10.00;9.00;;;;;13.55;85.64;102084.91;5039925;28;45325;-63
2024/01/26 07:41:09;;;;;;;;;10.50;8.00;;;;;13.56;85.78;102084.00;5040005;28;45882;-64
2024/01/26 07:43:34;;;;;;;;;12.50;9.00;;;;;13.57;85.79;102077.84;5044921;28;45400;-66
2024/01/26 07:45:59;;;;;;;;;7.50;7.00;;;;;13.54;86.23;102076.13;5042837;28;46220;-67
2024/01/26 07:48:25;;;;;;;;;9.25;7.00;;;;;13.53;86.26;102089.31;5039413;28;45411;-67
2024/01/26 07:50:50;;;;;;;;;13.00;7.25;;;;;13.52;86.37;102088.44;5072159;28;56240;-61
2024/01/26 07:53:15;;;;;;;;;6.50;6.50;;;;;13.51;86.35;102091.09;5037675;28;45438;-63
2024/01/26 07:55:41;;;;;;;;;10.00;8.00;;;;;13.46;87.02;102094.69;5037187;28;75695;-62
2024/01/26 07:58:06;;;;;;;;;6.00;5.00;;;;;13.45;86.99;102100.81;5039970;28;70269;-63
2024/01/26 08:00:32;;;;;;;;;8.00;6.75;;;;;13.43;87.29;102107.03;5040229;28;45478;-64
2024/01/26 08:02:57;;;;;;;;;9.50;6.25;;;;;13.42;86.99;102103.53;5042259;28;45275;-66
2024/01/26 08:05:23;;;;;;;;;6.25;6.25;;;;;13.42;87.51;102105.28;5039214;28;46468;-66
2024/01/26 08:07:48;;;;;;;;;11.75;8.00;;;;;13.41;87.53;102104.41;5037812;28;63285;-65
2024/01/26 08:10:13;;;;;;;;;10.75;10.50;;;;;13.40;88.10;102107.97;5081906;27;45204;-67
2024/01/26 08:12:40;;;;;;;;;56.75;44.25;;;;;13.36;88.53;102108.88;5042970;28;56970;-65
2024/01/26 08:15:06;;;;;;;;;13.75;10.75;;;;;13.38;88.17;102112.34;5042015;28;45464;-64
2024/01/26 08:17:34;;;;;;;;;6.00;5.75;;;;;13.41;88.21;102121.97;5058773;28;45304;-61
2024/01/26 08:20:02;;;;;;;;;6.00;4.50;;;;;13.40;88.20;102128.09;5038963;28;45301;-63
2024/01/26 08:22:28;;;;;;;;;7.75;5.75;;;;;13.41;88.04;102132.47;5040423;28;45265;-70
2024/01/26 08:24:53;;;;;;;;;7.00;5.25;;;;;13.43;88.15;102134.19;5043928;28;46319;-63
2024/01/26 08:27:19;;;;;;;;;7.00;5.25;;;;;13.45;87.68;102140.28;5041346;28;67288;-66
2024/01/26 08:29:44;;;;;;;;;6.25;3.50;;;;;13.45;88.00;102139.41;5073257;27;60473;-66
2024/01/26 08:32:09;;;;;;;;;4.00;3.00;;;;;13.52;87.75;102155.97;5035979;28;73185;-62
2024/01/26 08:34:38;;;;;;;;;4.25;4.00;;;;;13.55;88.30;102155.94;5051269;28;74128;-64
2024/01/26 08:37:03;;;;;;;;;6.25;4.75;;;;;13.58;88.35;102150.59;5037109;28;45265;-62
2024/01/26 08:39:33;;;;;;;;;6.50;5.00;;;;;13.57;88.00;102157.63;5052400;28;45557;-63
2024/01/26 08:41:58;;;;;;;;;6.25;4.00;;;;;13.61;88.27;102155.81;5037825;28;45228;-63
2024/01/26 08:44:24;;;;;;;;;6.25;4.00;;;;;13.57;88.34;102154.13;5047657;28;70186;-60
2024/01/26 08:46:49;;;;;;;;;7.00;4.75;;;;;13.53;88.97;102160.31;5042768;28;45543;-60
2024/01/26 08:49:15;;;;;;;;;5.25;5.00;;;;;13.50;89.22;102161.25;5043160;28;68326;-60
2024/01/26 08:51:41;;;;;;;;;5.00;4.00;;;;;13.50;89.18;102161.25;5045263;28;45557;-61
2024/01/26 08:54:07;;;;;;;;;4.25;3.50;;;;;13.53;89.73;102171.72;5078145;27;46917;-57
2024/01/26 08:56:33;;;;;;;;;5.75;3.00;;;;;13.54;89.76;102178.72;5050447;28;45322;-58
2024/01/26 08:58:58;;;;;;;;;7.25;5.00;;;;;13.55;89.93;102185.72;5053917;28;45994;-58
2024/01/26 09:01:24;;;;;;;;;7.75;5.00;;;;;13.58;89.56;102172.53;5045720;28;68306;-61
2024/01/26 09:03:50;;;;;;;;;8.50;3.00;;;;;13.57;90.39;102172.53;5053063;28;46133;-61
2024/01/26 09:06:15;;;;;;;;;4.00;3.00;;;;;13.56;90.63;102169.03;5050673;28;45366;-62
2024/01/26 09:08:40;;;;;;;;;6.00;4.75;;;;;13.59;90.60;102187.41;5051208;28;65541;-61
2024/01/26 09:11:06;;;;;;;;;4.25;3.00;;;;;13.60;90.66;102183.88;5052063;28;45271;-61
2024/01/26 09:13:31;;;;;;;;;4.75;4.00;;;;;13.63;90.04;102188.22;5043154;28;75559;-61
2024/01/26 09:15:56;;;;;;;;;5.00;3.00;;;;;13.64;90.64;102185.56;5040593;28;72295;-62
2024/01/26 09:18:22;;;;;;;;;5.00;3.25;;;;;13.67;90.29;102185.53;5040244;28;68925;-62
2024/01/26 09:20:49;;;;;;;;;3.00;3.00;;;;;13.74;90.29;102185.41;5039590;28;57572;-64
2024/01/26 09:23:15;;;;;;;;;3.75;3.00;;;;;13.77;90.46;102188.00;5045663;28;47251;-67
2024/01/26 09:25:40;;;;;;;;;5.25;3.75;;;;;13.78;90.12;102190.59;5048643;28;45434;-61
2024/01/26 09:28:06;;;;;;;;;4.75;2.75;;;;;13.79;90.42;102191.47;5041613;28;46502;-59
2024/01/26 09:30:31;;;;;;;;;4.25;3.75;;;;;13.79;90.27;102200.25;5042934;28;65721;-60
2024/01/26 09:32:56;;;;;;;;;4.00;3.00;;;;;13.80;90.32;102222.16;5042268;28;69732;-61
2024/01/26 09:35:23;;;;;;;;;3.50;3.00;;;;;13.83;90.20;102220.34;5030130;28;45380;-60
2024/01/26 09:37:49;;;;;;;;;3.25;3.25;;;;;13.89;90.17;102229.03;5041289;28;45473;-62
2024/01/26 09:40:15;;;;;;;;;4.75;3.00;;;;;13.92;90.23;102231.63;5040638;28;45756;-62
2024/01/26 09:42:40;;;;;;;;;4.00;2.75;;;;;13.93;90.53;102239.44;5038564;28;45875;-63
2024/01/26 09:45:08;;;;;;;;;3.25;3.25;;;;;13.94;90.23;102249.09;5041698;28;45622;-61
2024/01/26 09:47:35;;;;;;;;;2.00;0.75;;;;;13.97;91.61;102245.53;5042236;28;45465;-61
2024/01/26 09:50:03;;;;;;;;;4.25;2.00;;;;;13.98;90.89;102250.78;5049852;28;45409;-62
2024/01/26 09:52:29;;;;;;;;;1.75;1.50;;;;;13.99;90.18;102256.94;5045278;28;46348;-62
2024/01/26 09:54:55;;;;;;;;;2.25;2.00;;;;;13.98;90.42;102263.06;5046555;28;45468;-61
2024/01/26 09:57:22;;;;;;;;;3.00;3.00;;;;;13.98;90.60;102270.97;5044561;28;45306;-59
2024/01/26 09:59:50;;;;;;;;;3.00;3.00;;;;;13.95;90.43;102305.22;5047196;28;45251;-64
2024/01/26 10:02:16;;;;;;;;;3.25;2.00;;;;;13.85;89.65;102309.78;5035697;28;46470;-61
2024/01/26 10:04:41;;;;;;;;;2.00;2.00;;;;;13.75;89.02;102324.81;5048044;28;45355;-62
2024/01/26 10:07:07;;;;;;;;;2.75;2.00;;;;;13.66;88.44;102327.59;5043352;28;56561;-68
2024/01/26 10:09:34;;;;;;;;;1.00;1.00;;;;;13.53;87.41;102312.88;5039022;28;66225;-62
2024/01/26 10:12:00;;;;;;;;;1.75;1.00;;;;;13.40;86.00;102323.59;5040914;28;45507;-62
2024/01/26 10:14:25;;;;;;;;;1.00;1.00;;;;;13.30;84.98;102328.03;5050169;28;45665;-62
2024/01/26 10:16:57;;;;;;;;;2.50;1.00;;;;;13.25;84.53;102337.75;5050505;28;45457;-62
2024/01/26 10:19:25;;;;;;;;;1.50;1.50;;;;;13.19;84.21;102340.47;5043533;28;45267;-65
2024/01/26 10:21:51;;;;;;;;;1.00;0.25;;;;;13.13;82.83;102352.81;5043726;28;46127;-61
2024/01/26 10:24:19;;;;;;;;;1.25;1.25;;;;;13.08;82.42;102344.97;5039056;28;45993;-62
2024/01/26 10:26:44;;;;;;;;;2.00;0.00;;;;;13.08;82.91;102340.59;5042379;28;45311;-64
2024/01/26 10:29:13;;;;;;;;;2.00;1.00;;;;;13.15;81.83;102344.00;5080166;27;45490;-63
2024/01/26 10:31:41;;;;;;;;;1.50;1.00;;;;;13.18;81.70;102340.47;5038838;28;46120;-61
2024/01/26 10:34:12;;;;;;;;;2.00;2.00;;;;;13.20;81.63;102364.97;5041641;28;45303;-67
2024/01/26 10:36:41;;;;;;;;;4.00;1.25;;;;;13.24;81.30;102364.94;5065292;28;45328;-64
2024/01/26 10:39:08;;;;;;;;;3.00;1.75;;;;;13.32;81.00;102369.28;5044024;28;45500;-61
2024/01/26 10:41:37;;;;;;;;;1.00;1.00;;;;;13.35;80.72;102378.00;5041937;28;46213;-61
2024/01/26 10:44:03;;;;;;;;;3.00;2.25;;;;;13.31;79.08;102378.91;5034374;28;45844;-60
2024/01/26 10:46:28;;;;;;;;;1.75;1.25;;;;;13.32;79.51;102377.16;5079556;27;45649;-64
2024/01/26 10:48:56;;;;;;;;;3.00;1.00;;;;;13.33;79.45;102385.00;5053511;28;55801;-63
2024/01/26 10:51:21;;;;;;;;;4.25;2.00;;;;;13.33;78.92;102373.63;5048027;28;47255;-61
2024/01/26 10:53:48;;;;;;;;;2.00;2.00;;;;;13.37;78.83;102388.47;5044028;28;45410;-61
2024/01/26 10:56:15;;;;;;;;;2.25;1.00;;;;;13.37;78.72;102404.25;5052986;28;52904;-61
2024/01/26 10:58:40;;;;;;;;;5.00;1.75;;;;;13.43;78.54;102402.41;5088027;27;45558;-60
2024/01/26 11:01:05;;;;;;;;;11.00;4.50;;;;;13.52;77.90;102401.44;5040558;28;67162;-62
2024/01/26 11:03:31;;;;;;;;;7.75;5.75;;;;;13.60;76.86;102409.25;5050213;28;45308;-66
2024/01/26 11:05:56;;;;;;;;;11.75;7.50;;;;;13.65;75.81;102410.03;5089049;27;45382;-63
2024/01/26 11:08:24;;;;;;;;;3.50;1.50;;;;;13.61;75.10;102422.34;5053524;28;68202;-61
2024/01/26 11:10:51;;;;;;;;;3.25;1.00;;;;;13.60;74.15;102423.25;5043011;28;46150;-63